This is the latest recevied weather packets stored in our database for station/object KM6LYW-3. If no packets are shown the sender has not sent any weather packets the latest 10 day(s).
| Time | Temp. | Humidity | Pressure | Rain* | Wind** | Luminosity | Snow |
|---|---|---|---|---|---|---|---|
| 1788156005 | 66° F | 48% | 760.5 mmHg | 0 in | - | - | - |
| 1788152405 | 68° F | 45% | 760.3 mmHg | 0 in | - | - | - |
| 1788148805 | 72° F | 39% | 759.7 mmHg | 0 in | - | - | - |
| 1788145205 | 77° F | 34% | 759 mmHg | 0 in | - | - | - |
| 1788141605 | 83° F | 28% | 758.5 mmHg | 0 in | - | - | - |
| 1788138005 | 86° F | 26% | 758.4 mmHg | 0 in | - | - | - |
| 1788134406 | 88° F | 24% | 758.4 mmHg | 0 in | - | - | - |
| 1788130805 | 89° F | 24% | 758.5 mmHg | 0 in | - | - | - |
| 1788127205 | 90° F | 26% | 759.1 mmHg | 0 in | - | - | - |
| 1788123606 | 89° F | 28% | 759.4 mmHg | 0 in | - | - | - |
| 1788120005 | 88° F | 28% | 759.7 mmHg | 0 in | - | - | - |
| 1788116405 | 85° F | 27% | 760.2 mmHg | 0 in | - | - | - |
| 1788112806 | 83° F | 31% | 760.4 mmHg | 0 in | - | - | - |
| 1788109205 | 81° F | 34% | 760.5 mmHg | 0 in | - | - | - |
| 1788105605 | 72° F | 43% | 761.2 mmHg | 0 in | - | - | - |
| 1788102005 | 63° F | 55% | 762.1 mmHg | 0 in | - | - | - |
| 1788098405 | 59° F | 55% | 762.1 mmHg | 0 in | - | - | - |
| 1788094805 | 61° F | 53% | 761.5 mmHg | 0 in | - | - | - |
| 1788091206 | 61° F | 53% | 761.5 mmHg | 0 in | - | - | - |
| 1788087606 | 61° F | 53% | 761.6 mmHg | 0 in | - | - | - |
| 1788084006 | 60° F | 53% | 761.7 mmHg | 0 in | - | - | - |
| 1788080406 | 61° F | 52% | 761.7 mmHg | 0 in | - | - | - |
| 1788076805 | 62° F | 54% | 761.7 mmHg | 0 in | - | - | - |
| 1788073205 | 63° F | 51% | 761.8 mmHg | 0 in | - | - | - |
| 1788069605 | 65° F | 50% | 761.7 mmHg | 0 in | - | - | - |
* Rain latest hour (hover to see other rain measurements)
** Current wind speed in m/s (hover to see current wind gust speed)